Terminal Aerodrome Forecast
Issued by NWS

Home | Current Version | Previous Version | Text Only | Print | Product List | Glossary On
Versions: 1 2 3 4 5 6 7 8 9 10 11 12
022
FTUS45 KABQ 121120
TAFTCC
TAF
KTCC 121120Z 1212/1312 32006KT P6SM SKC
     FM121800 10006KT P6SM SKC=

USA.gov is the U.S. government's official web portal to all federal, state and local government web resources and services.